createdAt,value
2022-12-04T00:01:08.989Z,1.47
2022-12-04T00:03:36.472Z,1.48
2022-12-04T00:06:17.254Z,1.46
2022-12-04T00:08:44.004Z,1.50
2022-12-04T00:11:12.030Z,1.48
2022-12-04T00:13:39.150Z,1.46
2022-12-04T00:16:08.487Z,1.46
2022-12-04T00:18:35.652Z,1.47
2022-12-04T00:21:06.922Z,1.47
2022-12-04T00:23:34.756Z,1.46
2022-12-04T00:26:03.278Z,1.62
2022-12-04T00:28:29.806Z,1.50
2022-12-04T00:30:56.183Z,1.42
2022-12-04T00:33:23.584Z,1.48
2022-12-04T00:36:00.764Z,1.52
2022-12-04T00:38:27.591Z,1.49
2022-12-04T00:40:54.756Z,1.43
2022-12-04T00:43:22.355Z,1.45
2022-12-04T00:45:49.430Z,1.47
2022-12-04T00:48:16.048Z,1.42
2022-12-04T00:50:42.409Z,1.46
2022-12-04T00:53:08.862Z,1.41
2022-12-04T00:55:41.085Z,1.38
2022-12-04T00:58:07.879Z,1.35
2022-12-04T01:00:35.823Z,1.39
2022-12-04T01:03:02.646Z,1.40
2022-12-04T01:05:29.111Z,1.39
2022-12-04T01:07:55.563Z,1.39
2022-12-04T01:10:22.114Z,1.35
2022-12-04T01:12:53.616Z,1.42
2022-12-04T01:15:22.816Z,1.41
2022-12-04T01:18:03.574Z,1.42
2022-12-04T01:20:32.547Z,1.48
2022-12-04T01:22:59.048Z,1.41
2022-12-04T01:25:25.399Z,1.38
2022-12-04T01:27:51.757Z,1.39
2022-12-04T01:30:20.138Z,1.45
2022-12-04T01:32:46.508Z,1.40
2022-12-04T01:35:12.975Z,1.41
2022-12-04T01:37:39.615Z,1.44
2022-12-04T01:40:06.868Z,1.40
2022-12-04T01:42:33.247Z,1.40
2022-12-04T01:45:30.767Z,1.40
2022-12-04T01:48:06.539Z,1.41
2022-12-04T01:50:33.443Z,1.41
2022-12-04T01:53:02.044Z,1.42
2022-12-04T01:55:29.945Z,1.41
2022-12-04T01:57:56.947Z,1.46
2022-12-04T02:00:24.187Z,1.46
2022-12-04T02:02:50.902Z,1.46
2022-12-04T02:05:20.811Z,1.45
2022-12-04T02:07:48.875Z,1.44
2022-12-04T02:10:17.170Z,1.46
2022-12-04T02:13:03.402Z,1.46
2022-12-04T02:15:50.883Z,1.45
2022-12-04T02:18:27.427Z,1.47
2022-12-04T02:21:14.029Z,1.46
2022-12-04T02:23:58.872Z,1.48
2022-12-04T02:26:34.011Z,1.48
2022-12-04T02:29:27.605Z,1.52
2022-12-04T02:32:16.148Z,1.52
2022-12-04T02:34:55.590Z,1.53
2022-12-04T02:37:32.356Z,1.53
2022-12-04T02:40:07.737Z,1.54
2022-12-04T02:42:42.400Z,1.53
2022-12-04T02:45:14.315Z,1.57
2022-12-04T02:47:43.247Z,1.55
2022-12-04T02:50:13.522Z,1.55
2022-12-04T02:52:46.396Z,1.56
2022-12-04T02:55:21.755Z,1.56
2022-12-04T02:57:53.187Z,1.56
2022-12-04T03:00:21.228Z,1.56
2022-12-04T03:02:55.347Z,1.58
2022-12-04T03:05:27.696Z,1.60
2022-12-04T03:08:01.079Z,1.60
2022-12-04T03:10:34.277Z,1.60
2022-12-04T03:13:09.262Z,1.63
2022-12-04T03:15:45.905Z,1.64
2022-12-04T03:18:18.337Z,1.62
2022-12-04T03:20:48.298Z,1.76
2022-12-04T03:23:20.451Z,1.72
2022-12-04T03:25:59.089Z,1.67
2022-12-04T03:28:40.293Z,1.62
2022-12-04T03:31:09.298Z,1.62
2022-12-04T03:33:43.273Z,1.66
2022-12-04T03:36:28.179Z,1.65
2022-12-04T03:39:00.518Z,1.66
2022-12-04T03:41:36.216Z,1.64
2022-12-04T03:44:12.598Z,1.65
2022-12-04T03:46:52.209Z,1.68
2022-12-04T03:50:02.509Z,1.66
2022-12-04T03:52:42.238Z,1.65
2022-12-04T03:55:15.812Z,1.63
2022-12-04T03:57:45.337Z,1.71
2022-12-04T04:00:18.853Z,1.90
2022-12-04T04:02:52.447Z,1.81
2022-12-04T04:05:20.276Z,1.75
2022-12-04T04:07:51.060Z,1.73
2022-12-04T04:10:22.208Z,1.69
2022-12-04T04:13:16.229Z,1.70
2022-12-04T04:16:07.258Z,1.67
2022-12-04T04:18:52.360Z,1.67
2022-12-04T04:21:41.908Z,1.69
2022-12-04T04:24:18.769Z,1.67
2022-12-04T04:26:47.297Z,1.71
2022-12-04T04:29:14.301Z,1.70
2022-12-04T04:32:08.546Z,1.82
2022-12-04T04:34:50.434Z,1.73
2022-12-04T04:37:32.256Z,1.77
2022-12-04T04:40:19.022Z,1.79
2022-12-04T04:42:55.500Z,1.73
2022-12-04T04:45:35.964Z,1.68
2022-12-04T04:48:08.538Z,1.76
2022-12-04T04:50:36.993Z,1.73
2022-12-04T04:53:08.981Z,1.88
2022-12-04T04:55:36.569Z,1.78
2022-12-04T04:58:11.245Z,1.73
2022-12-04T05:00:38.766Z,1.79
2022-12-04T05:03:06.023Z,1.80
2022-12-04T05:05:32.415Z,1.75
2022-12-04T05:07:58.842Z,1.80
2022-12-04T05:10:25.247Z,1.78
2022-12-04T05:12:51.639Z,1.78
2022-12-04T05:15:18.088Z,1.88
2022-12-04T05:17:44.427Z,1.84
2022-12-04T05:20:11.263Z,1.82
2022-12-04T05:22:38.111Z,1.91
2022-12-04T05:25:06.036Z,1.86
2022-12-04T05:27:33.088Z,1.82
2022-12-04T05:29:59.744Z,1.93
2022-12-04T05:32:28.002Z,1.86
2022-12-04T05:34:57.125Z,1.87
2022-12-04T05:37:24.235Z,1.93
2022-12-04T05:39:50.642Z,1.93
2022-12-04T05:42:17.039Z,1.91
2022-12-04T05:44:43.397Z,1.90
2022-12-04T05:47:10.004Z,1.86
2022-12-04T05:49:36.475Z,1.88
2022-12-04T05:52:05.075Z,1.87
2022-12-04T05:54:31.819Z,1.89
2022-12-04T05:56:58.307Z,1.89
2022-12-04T05:59:24.679Z,1.94
2022-12-04T06:01:51.078Z,1.97
2022-12-04T06:04:17.501Z,2.07
2022-12-04T06:06:43.915Z,2.16
2022-12-04T06:09:11.483Z,2.30
2022-12-04T06:11:40.050Z,2.20
2022-12-04T06:14:09.100Z,2.10
2022-12-04T06:16:37.967Z,2.07
2022-12-04T06:19:11.056Z,2.07
2022-12-04T06:21:39.811Z,2.07
2022-12-04T06:24:07.399Z,2.07
2022-12-04T06:26:33.771Z,2.05
2022-12-04T06:29:00.406Z,2.03
2022-12-04T06:31:29.028Z,2.01
2022-12-04T06:33:57.350Z,2.02
2022-12-04T06:36:24.370Z,2.05
2022-12-04T06:38:51.715Z,2.03
2022-12-04T06:41:20.943Z,2.02
2022-12-04T06:43:47.369Z,1.99
2022-12-04T06:46:16.996Z,1.98
2022-12-04T06:48:43.538Z,2.00
2022-12-04T06:51:16.897Z,2.00
2022-12-04T06:53:44.020Z,2.03
2022-12-04T06:56:16.132Z,2.14
2022-12-04T06:58:42.473Z,2.10
2022-12-04T07:01:11.733Z,2.07
2022-12-04T07:03:39.050Z,2.04
2022-12-04T07:06:24.454Z,2.07
2022-12-04T07:08:58.120Z,2.07
2022-12-04T07:11:24.837Z,2.09
2022-12-04T07:13:51.460Z,2.12
2022-12-04T07:16:20.794Z,2.15
2022-12-04T07:18:50.377Z,2.11
2022-12-04T07:21:20.228Z,2.18
2022-12-04T07:23:48.925Z,2.16
2022-12-04T07:26:15.376Z,2.16
2022-12-04T07:28:41.941Z,2.19
2022-12-04T07:31:13.685Z,2.22
2022-12-04T07:33:40.686Z,2.19
2022-12-04T07:36:09.851Z,2.21
2022-12-04T07:38:36.282Z,2.17
2022-12-04T07:41:04.784Z,2.21
2022-12-04T07:43:31.741Z,2.21
2022-12-04T07:45:58.730Z,2.25
2022-12-04T07:48:30.209Z,2.22
2022-12-04T07:51:05.661Z,2.20
2022-12-04T07:53:33.904Z,2.21
2022-12-04T07:56:00.290Z,2.21
2022-12-04T07:58:26.692Z,2.22
2022-12-04T08:00:53.385Z,2.25
2022-12-04T08:03:19.785Z,2.27
2022-12-04T08:05:46.139Z,2.27
2022-12-04T08:08:13.236Z,2.27
2022-12-04T08:10:40.907Z,2.30
2022-12-04T08:13:07.276Z,2.32
2022-12-04T08:15:34.782Z,2.39
2022-12-04T08:18:01.142Z,2.38
2022-12-04T08:20:27.557Z,2.37
2022-12-04T08:22:53.932Z,2.35
2022-12-04T08:25:20.431Z,2.42
2022-12-04T08:27:47.940Z,2.41
2022-12-04T08:30:14.474Z,2.48
2022-12-04T08:32:40.900Z,2.52
2022-12-04T08:35:07.656Z,2.63
2022-12-04T08:37:34.217Z,2.71
2022-12-04T08:40:00.679Z,2.59
2022-12-04T08:42:27.052Z,2.52
2022-12-04T08:44:53.412Z,2.52
2022-12-04T08:47:19.755Z,2.52
2022-12-04T08:49:46.260Z,2.50
2022-12-04T08:52:12.851Z,2.52
2022-12-04T08:54:39.391Z,2.60
2022-12-04T08:57:06.131Z,2.57
2022-12-04T08:59:32.658Z,2.65
2022-12-04T09:01:59.109Z,2.70
2022-12-04T09:04:25.669Z,2.80
2022-12-04T09:06:52.048Z,2.68
2022-12-04T09:09:18.546Z,2.59
2022-12-04T09:11:46.281Z,2.71
2022-12-04T09:14:12.889Z,2.60
2022-12-04T09:16:39.232Z,2.57
2022-12-04T09:19:05.656Z,2.53
2022-12-04T09:21:32.076Z,2.53
2022-12-04T09:23:59.184Z,2.53
2022-12-04T09:26:28.405Z,2.60
2022-12-04T09:28:55.854Z,2.59
2022-12-04T09:31:23.358Z,2.67
2022-12-04T09:33:50.264Z,2.73
2022-12-04T09:36:17.224Z,2.70
2022-12-04T09:38:45.401Z,2.76
2022-12-04T09:41:49.405Z,2.73
2022-12-04T09:44:28.169Z,2.77
2022-12-04T09:47:01.244Z,2.82
2022-12-04T09:49:36.518Z,2.80
2022-12-04T09:52:11.674Z,2.93
2022-12-04T09:54:42.385Z,2.92
2022-12-04T09:57:17.245Z,2.96
2022-12-04T09:59:44.997Z,3.02
2022-12-04T10:02:33.347Z,3.25
2022-12-04T10:04:59.991Z,3.06
2022-12-04T10:07:28.912Z,2.99
2022-12-04T10:10:04.579Z,3.10
2022-12-04T10:12:46.306Z,3.17
2022-12-04T10:15:40.409Z,3.09
2022-12-04T10:18:15.671Z,3.15
2022-12-04T10:20:51.161Z,3.17
2022-12-04T10:23:51.972Z,3.05
2022-12-04T10:26:23.860Z,3.09
2022-12-04T10:29:01.036Z,3.07
2022-12-04T10:31:29.657Z,3.05
2022-12-04T10:33:58.655Z,3.04
2022-12-04T10:36:31.793Z,3.08
2022-12-04T10:39:10.757Z,3.10
2022-12-04T10:41:45.528Z,3.15
2022-12-04T10:44:16.952Z,3.14
2022-12-04T10:46:46.311Z,3.13
2022-12-04T10:49:29.881Z,3.16
2022-12-04T10:51:56.417Z,3.21
2022-12-04T10:54:37.372Z,3.23
2022-12-04T10:57:08.620Z,3.26
2022-12-04T10:59:38.764Z,3.49
2022-12-04T11:02:24.294Z,3.43
2022-12-04T11:05:17.869Z,3.40
2022-12-04T11:07:47.355Z,3.52
2022-12-04T11:10:25.845Z,3.49
2022-12-04T11:12:57.354Z,3.46
2022-12-04T11:15:24.508Z,3.44
2022-12-04T11:17:52.627Z,3.44
2022-12-04T11:20:26.497Z,3.47
2022-12-04T11:22:59.475Z,3.42
2022-12-04T11:25:31.776Z,3.57
2022-12-04T11:28:01.082Z,3.51
2022-12-04T11:30:38.114Z,3.55
2022-12-04T11:33:14.775Z,3.55
2022-12-04T11:35:41.466Z,3.55
2022-12-04T11:38:18.694Z,3.62
2022-12-04T11:40:50.495Z,3.61
2022-12-04T11:43:18.202Z,3.61
2022-12-04T11:46:02.523Z,3.61
2022-12-04T11:48:31.485Z,3.69
2022-12-04T11:51:17.781Z,3.68
2022-12-04T11:54:09.004Z,3.67
2022-12-04T11:56:42.542Z,3.65
2022-12-04T11:59:44.273Z,3.73
2022-12-04T12:02:32.579Z,3.73
2022-12-04T12:05:08.443Z,3.75
2022-12-04T12:07:48.262Z,3.76
2022-12-04T12:10:27.729Z,3.77
2022-12-04T12:13:13.976Z,3.78
2022-12-04T12:15:53.994Z,3.84
2022-12-04T12:18:24.633Z,3.85
2022-12-04T12:21:08.576Z,3.88
2022-12-04T12:23:59.537Z,3.90
2022-12-04T12:26:55.088Z,3.96
2022-12-04T12:29:56.103Z,4.02
2022-12-04T12:32:31.158Z,4.01
2022-12-04T12:34:58.342Z,4.03
2022-12-04T12:37:49.380Z,4.02
2022-12-04T12:40:25.105Z,4.06
2022-12-04T12:43:04.848Z,4.08
2022-12-04T12:45:43.967Z,4.09
2022-12-04T12:48:24.571Z,4.13
2022-12-04T12:51:22.217Z,4.17
2022-12-04T12:53:51.133Z,4.20
2022-12-04T12:56:20.900Z,4.23
2022-12-04T12:58:51.236Z,4.40
2022-12-04T13:01:34.660Z,4.36
2022-12-04T13:04:13.062Z,4.40
2022-12-04T13:06:42.914Z,4.42
2022-12-04T13:09:26.489Z,4.44
2022-12-04T13:12:00.321Z,4.49
2022-12-04T13:14:26.718Z,4.53
2022-12-04T13:17:01.067Z,4.59
2022-12-04T13:19:44.576Z,4.59
2022-12-04T13:22:26.811Z,4.60
2022-12-04T13:25:03.828Z,4.63
2022-12-04T13:28:01.888Z,4.67
2022-12-04T13:30:42.347Z,4.73
2022-12-04T13:33:20.793Z,4.78
2022-12-04T13:35:50.121Z,4.77
2022-12-04T13:38:35.282Z,4.79
2022-12-04T13:41:05.446Z,4.86
2022-12-04T13:43:36.131Z,4.94
2022-12-04T13:46:06.111Z,4.92
2022-12-04T13:48:43.240Z,4.96
2022-12-04T13:51:41.819Z,5.07
2022-12-04T13:54:10.929Z,5.15
2022-12-04T13:56:39.588Z,5.13
2022-12-04T13:59:18.783Z,5.12
2022-12-04T14:01:48.279Z,5.12
2022-12-04T14:04:45.552Z,5.16
2022-12-04T14:07:25.748Z,5.13
2022-12-04T14:09:54.468Z,5.13
2022-12-04T14:12:28.192Z,5.14
2022-12-04T14:14:59.401Z,5.08
2022-12-04T14:17:33.709Z,5.13
2022-12-04T14:20:07.810Z,5.11
2022-12-04T14:22:34.644Z,5.11
2022-12-04T14:25:13.205Z,5.13
2022-12-04T14:27:42.723Z,5.08
2022-12-04T14:30:28.354Z,4.97
2022-12-04T14:33:01.530Z,4.94
2022-12-04T14:35:29.122Z,4.88
2022-12-04T14:37:59.003Z,4.77
2022-12-04T14:40:28.660Z,4.82
2022-12-04T14:42:55.659Z,4.75
2022-12-04T14:45:52.467Z,4.75
2022-12-04T14:48:48.508Z,4.70
2022-12-04T14:51:41.622Z,4.67
2022-12-04T14:54:36.818Z,4.65
2022-12-04T14:57:31.514Z,4.65
2022-12-04T14:59:58.290Z,4.59
2022-12-04T15:02:41.506Z,4.55
2022-12-04T15:05:10.829Z,4.57
2022-12-04T15:07:37.346Z,4.59
2022-12-04T15:10:40.160Z,4.54
2022-12-04T15:13:06.652Z,4.54
2022-12-04T15:15:33.104Z,4.55
2022-12-04T15:18:17.549Z,4.67
2022-12-04T15:20:49.991Z,4.70
2022-12-04T15:23:41.339Z,4.78
2022-12-04T15:26:20.938Z,4.78
2022-12-04T15:29:00.680Z,4.77
2022-12-04T15:31:33.642Z,4.73
2022-12-04T15:34:03.955Z,4.71
2022-12-04T15:36:44.505Z,4.68
2022-12-04T15:39:18.835Z,4.66
2022-12-04T15:41:45.490Z,4.64
2022-12-04T15:44:30.069Z,4.62
2022-12-04T15:47:00.161Z,4.63
2022-12-04T15:49:31.470Z,4.62
2022-12-04T15:52:15.216Z,4.60
2022-12-04T15:54:44.237Z,4.60
2022-12-04T15:57:44.140Z,4.63
2022-12-04T16:00:42.346Z,4.62
2022-12-04T16:03:32.093Z,4.68
2022-12-04T16:06:22.673Z,4.67
2022-12-04T16:08:52.890Z,4.73
2022-12-04T16:11:20.127Z,4.72
2022-12-04T16:14:03.212Z,4.73
2022-12-04T16:16:32.333Z,4.70
2022-12-04T16:18:59.001Z,4.67
2022-12-04T16:21:31.278Z,4.69
2022-12-04T16:24:05.643Z,4.69
2022-12-04T16:26:32.956Z,4.68
2022-12-04T16:28:59.574Z,4.66
2022-12-04T16:31:26.731Z,4.64
2022-12-04T16:33:57.434Z,4.66
2022-12-04T16:36:23.921Z,4.63
2022-12-04T16:38:50.462Z,4.67
2022-12-04T16:41:19.972Z,4.72
2022-12-04T16:43:56.279Z,4.71
2022-12-04T16:46:24.929Z,4.69
2022-12-04T16:48:51.449Z,4.73
2022-12-04T16:51:23.344Z,4.68
2022-12-04T16:53:53.881Z,4.66
2022-12-04T16:56:21.293Z,4.69
2022-12-04T16:58:47.993Z,4.71
2022-12-04T17:01:28.336Z,4.73
2022-12-04T17:06:35.214Z,4.72
2022-12-04T17:09:01.632Z,4.72
2022-12-04T17:11:28.186Z,4.78
2022-12-04T17:13:54.545Z,4.79
2022-12-04T17:16:21.114Z,4.75
2022-12-04T17:18:47.768Z,4.74
2022-12-04T17:21:14.675Z,4.77
2022-12-04T17:23:41.346Z,4.74
2022-12-04T17:26:13.473Z,4.72
2022-12-04T17:28:40.638Z,4.70
2022-12-04T17:31:16.326Z,4.73
2022-12-04T17:33:43.779Z,4.71
2022-12-04T17:36:15.251Z,4.70
2022-12-04T17:38:41.860Z,4.68
2022-12-04T17:41:10.420Z,4.69
2022-12-04T17:43:36.820Z,4.75
2022-12-04T17:46:21.487Z,4.75
2022-12-04T17:48:48.591Z,4.71
2022-12-04T17:51:18.026Z,4.69
2022-12-04T17:53:44.811Z,4.70
2022-12-04T17:56:17.345Z,4.70
2022-12-04T17:58:44.766Z,4.67
2022-12-04T18:01:17.756Z,4.69
2022-12-04T18:03:49.753Z,4.71
2022-12-04T18:06:21.362Z,4.68
2022-12-04T18:08:50.248Z,4.69
2022-12-04T18:11:20.417Z,4.74
2022-12-04T18:13:48.872Z,4.81
2022-12-04T18:16:15.803Z,4.86
2022-12-04T18:18:42.520Z,4.90
2022-12-04T18:21:11.292Z,4.95
2022-12-04T18:23:44.314Z,4.97
2022-12-04T18:26:16.937Z,5.10
2022-12-04T18:28:43.892Z,5.14
2022-12-04T18:31:10.860Z,5.18
2022-12-04T18:33:39.096Z,5.23
2022-12-04T18:36:09.125Z,5.43
2022-12-04T18:38:35.664Z,5.39
2022-12-04T18:41:04.086Z,5.35
2022-12-04T18:43:33.979Z,5.36
2022-12-04T18:46:07.075Z,5.40
2022-12-04T18:48:34.832Z,5.42
2022-12-04T18:51:01.491Z,5.48
2022-12-04T18:53:28.090Z,5.49
2022-12-04T18:55:54.573Z,5.55
2022-12-04T18:58:22.635Z,5.57
2022-12-04T19:00:49.317Z,5.67
2022-12-04T19:03:15.696Z,5.66
2022-12-04T19:05:50.008Z,5.67
2022-12-04T19:08:17.564Z,5.69
2022-12-04T19:10:44.083Z,5.64
2022-12-04T19:13:10.567Z,5.65
2022-12-04T19:15:42.651Z,5.63
2022-12-04T19:18:09.452Z,5.63
2022-12-04T19:20:39.520Z,5.67
2022-12-04T19:23:05.868Z,5.65
2022-12-04T19:25:32.565Z,5.68
2022-12-04T19:27:59.116Z,5.69
2022-12-04T19:30:29.843Z,5.64
2022-12-04T19:32:56.194Z,5.68
2022-12-04T19:35:22.560Z,5.67
2022-12-04T19:37:55.052Z,5.62
2022-12-04T19:40:23.608Z,5.63
2022-12-04T19:42:50.009Z,5.63
2022-12-04T19:45:16.564Z,5.63
2022-12-04T19:47:43.136Z,5.64
2022-12-04T19:50:10.116Z,5.63
2022-12-04T19:52:36.481Z,5.63
2022-12-04T19:55:02.982Z,5.69
2022-12-04T19:57:29.410Z,5.65
2022-12-04T19:59:55.768Z,5.67
2022-12-04T20:02:22.194Z,5.67
2022-12-04T20:04:48.675Z,5.69
2022-12-04T20:07:15.227Z,5.70
2022-12-04T20:09:43.132Z,5.70
2022-12-04T20:12:12.585Z,5.75
2022-12-04T20:14:39.066Z,5.74
2022-12-04T20:17:05.566Z,5.68
2022-12-04T20:19:32.347Z,5.66
2022-12-04T20:21:59.560Z,5.71
2022-12-04T20:24:26.356Z,5.68
2022-12-04T20:26:52.699Z,5.66
2022-12-04T20:29:19.187Z,5.71
2022-12-04T20:31:46.348Z,5.80
2022-12-04T20:34:15.654Z,5.78
2022-12-04T20:36:44.049Z,5.72
2022-12-04T20:39:12.076Z,5.75
2022-12-04T20:41:38.970Z,5.82
2022-12-04T20:44:12.019Z,5.77
2022-12-04T20:46:39.921Z,5.74
2022-12-04T20:49:10.025Z,5.70
2022-12-04T20:51:39.054Z,5.73
2022-12-04T20:54:06.035Z,5.78
2022-12-04T20:56:35.010Z,5.78
2022-12-04T20:59:04.867Z,5.76
2022-12-04T21:01:31.532Z,5.77
2022-12-04T21:03:59.050Z,5.81
2022-12-04T21:06:34.531Z,5.78
2022-12-04T21:09:06.533Z,5.78
2022-12-04T21:11:36.933Z,5.78
2022-12-04T21:14:24.868Z,5.83
2022-12-04T21:16:51.660Z,5.83
2022-12-04T21:19:21.057Z,5.83
2022-12-04T21:21:47.863Z,5.78
2022-12-04T21:24:16.678Z,5.81
2022-12-04T21:26:43.657Z,5.78
2022-12-04T21:29:10.443Z,5.87
2022-12-04T21:31:38.114Z,5.89
2022-12-04T21:34:07.261Z,5.86
2022-12-04T21:36:34.001Z,5.88
2022-12-04T21:39:00.476Z,5.90
2022-12-04T21:41:45.457Z,5.88
2022-12-04T21:44:14.865Z,5.89
2022-12-04T21:46:41.615Z,5.87
2022-12-04T21:49:08.169Z,5.99
2022-12-04T21:54:21.609Z,5.96
2022-12-04T21:56:48.326Z,5.91
2022-12-04T21:59:14.950Z,5.98
2022-12-04T22:01:42.024Z,5.96
2022-12-04T22:04:08.431Z,6.00
2022-12-04T22:06:36.232Z,5.98
2022-12-04T22:09:06.597Z,6.00
2022-12-04T22:11:33.652Z,6.01
2022-12-04T22:14:00.035Z,5.96
2022-12-04T22:16:30.372Z,5.98
2022-12-04T22:18:58.999Z,6.00
2022-12-04T22:21:26.674Z,6.04
2022-12-04T22:24:01.395Z,5.98
2022-12-04T22:26:29.344Z,6.00
2022-12-04T22:28:56.480Z,6.00
2022-12-04T22:31:25.846Z,6.01
2022-12-04T22:33:54.040Z,6.02
2022-12-04T22:36:23.665Z,5.96
2022-12-04T22:39:09.785Z,6.05
2022-12-04T22:41:37.354Z,5.96
2022-12-04T22:44:04.023Z,5.93
2022-12-04T22:46:30.772Z,5.91
2022-12-04T22:48:58.926Z,5.90
2022-12-04T22:51:25.355Z,5.93
2022-12-04T22:53:54.420Z,5.95
2022-12-04T22:56:27.753Z,5.89
2022-12-04T22:58:55.128Z,5.83
2022-12-04T23:01:25.797Z,5.84
2022-12-04T23:03:53.289Z,5.82
2022-12-04T23:06:22.444Z,5.83
2022-12-04T23:08:53.470Z,5.83
2022-12-04T23:11:21.926Z,5.84
2022-12-04T23:13:54.529Z,5.82
2022-12-04T23:16:22.733Z,5.79
2022-12-04T23:18:49.913Z,5.77
2022-12-04T23:21:18.075Z,5.80
2022-12-04T23:23:46.151Z,5.80
2022-12-04T23:26:15.691Z,5.83
2022-12-04T23:28:42.647Z,5.79
2022-12-04T23:31:09.279Z,5.80
2022-12-04T23:33:35.723Z,5.80
2022-12-04T23:36:03.300Z,5.83
2022-12-04T23:38:30.843Z,5.80
2022-12-04T23:41:05.552Z,5.83
2022-12-04T23:43:32.736Z,5.83
2022-12-04T23:45:59.241Z,5.79
2022-12-04T23:48:25.774Z,5.80
2022-12-04T23:50:53.127Z,5.78
2022-12-04T23:53:20.553Z,5.79
2022-12-04T23:56:03.562Z,5.80
2022-12-04T23:58:31.455Z,5.83
